Anne Sibum — C4YC2 — position and weather

sailwx.info

Track history (hours):
 
Tides and Currents Weather Stations Pressure Air Temp Water Temp Dewpoint Dewpoint Depression Visibility Wind Speed Wind Dir Waves Ship Positions

Anne Sibum

Last reported at 2015-Aug-03 16:33 UTC. Time now 2015-Aug-03 17:11 UTC.
Position N 53°59' E 008°28'.

Length 151 m; draft 5.9 m.

Type: Cargo ship. MMSI: 209322000.

Date/timePositionNaut miles runAvg speedWind from/ knotsBaromVisibWave heightAir tempDewpointWater temp
2015-Aug-03 16:33N 53°59' E 008°28'1212.0
2015-Aug-03 15:33N 53°59' E 008°07'1111.2
2015-Aug-03 14:33N 53°51' E 007°53'1313.3
2015-Aug-03 13:33N 53°40' E 008°06'5 5.0
2015-Aug-03 12:31N 53°35' E 008°09'0 0.0
2015-Aug-03 11:30N 53°35' E 008°09'0 0.0
2015-Aug-03 10:31N 53°35' E 008°09'0 0.0
2015-Aug-03 09:32N 53°35' E 008°09'0 0.0
2015-Aug-03 08:32N 53°35' E 008°09'0 0.0
2015-Aug-03 07:32N 53°35' E 008°09'0 0.0
2015-Aug-03 06:31N 53°35' E 008°09'0 0.0
2015-Aug-03 05:31N 53°35' E 008°09'0 0.0
2015-Aug-03 04:33N 53°35' E 008°09'0 0.0
2015-Aug-03 03:30N 53°35' E 008°09'0 0.0
2015-Aug-03 02:20N 53°35' E 008°09'0 0.0
2015-Aug-03 01:32N 53°35' E 008°09'0 0.0
2015-Aug-03 00:32N 53°35' E 008°09'0 0.0
2015-Aug-02 23:31N 53°35' E 008°09'0 0.0
2015-Aug-02 22:31N 53°35' E 008°09'0 0.0
2015-Aug-02 21:33N 53°35' E 008°09'0 0.0
2015-Aug-02 20:30N 53°35' E 008°09'0 0.0
2015-Aug-02 19:32N 53°35' E 008°09'0 0.0
2015-Aug-02 18:32N 53°35' E 008°09'0 0.0
2015-Aug-02 17:31N 53°35' E 008°09'0 0.0
2015-Aug-02 16:33N 53°35' E 008°09'0 0.0
2015-Aug-02 15:31N 53°35' E 008°09'0 0.0
2015-Aug-02 14:33N 53°35' E 008°09'0 0.0
2015-Aug-02 13:33N 53°35' E 008°09'0 0.0
2015-Aug-02 12:26N 53°35' E 008°09'0 0.0
2015-Aug-02 11:29N 53°35' E 008°09'0 0.0
2015-Aug-02 10:31N 53°35' E 008°09'0 0.0
2015-Aug-02 09:31N 53°35' E 008°09'0 0.0
2015-Aug-02 08:31N 53°35' E 008°09'0 0.0
2015-Aug-02 07:33N 53°35' E 008°09'0 0.0
2015-Aug-02 06:33N 53°35' E 008°09'0 0.0
2015-Aug-02 05:32N 53°35' E 008°09'0 0.0
2015-Aug-02 04:32N 53°35' E 008°09'0 0.0
2015-Aug-02 03:31N 53°35' E 008°09'0 0.0
2015-Aug-02 02:28N 53°35' E 008°09'0 0.0
2015-Aug-02 01:31N 53°35' E 008°09'0 0.0
2015-Aug-02 00:33N 53°35' E 008°09'0 0.0
2015-Aug-01 23:33N 53°35' E 008°09'0 0.0
2015-Aug-01 22:32N 53°35' E 008°09'0 0.0
2015-Aug-01 21:33N 53°35' E 008°09'0 0.0
2015-Aug-01 20:33N 53°35' E 008°09'6 5.6
2015-Aug-01 19:33N 53°40' E 008°05'1313.3
2015-Aug-01 18:33N 53°51' E 007°53'3 3.1
2015-Aug-01 17:33N 53°54' E 007°49'0 0.1
2015-Aug-01 16:32N 53°54' E 007°49'0 0.0
2015-Aug-01 15:29N 53°54' E 007°49'0 0.0
2015-Aug-01 14:28N 53°54' E 007°49'0 0.0
2015-Aug-01 13:16N 53°54' E 007°49'0 0.0
2015-Aug-01 12:31N 53°54' E 007°49'2 1.9
2015-Aug-01 11:33N 53°55' E 007°52'1212.3
2015-Aug-01 10:34N 54°00' E 008°10'1211.7
2015-Aug-01 09:33N 53°59' E 008°30'1111.0
2015-Aug-01 08:33N 53°52' E 008°45'1413.9
2015-Aug-01 07:33N 53°53' E 009°08'1 1.0
2015-Aug-01 06:33N 53°54' E 009°09'3 3.5
2015-Aug-01 05:33N 53°57' E 009°13'16 7.8
2015-Aug-01 03:33N 54°10' E 009°26'7 7.3
2015-Aug-01 02:33N 54°14' E 009°37'6 6.2
2015-Aug-01 01:33N 54°19' E 009°43'5 5.3
2015-Aug-01 00:33N 54°22' E 009°51'7 7.5
2015-Jul-31 23:33N 54°22' E 010°04'3 3.0
2015-Jul-31 22:33N 54°22' E 010°09'1 1.0
2015-Jul-31 21:33N 54°22' E 010°10'7 7.2
2015-Jul-31 20:33N 54°29' E 010°16'8 7.9
2015-Jul-31 19:33N 54°32' E 010°27'5 4.8
2015-Jul-31 18:33N 54°34' E 010°35'1010.1
2015-Jul-31 17:34N 54°35' E 010°52'1312.9
2015-Jul-31 16:33N 54°35' E 011°14'1313.4
2015-Jul-31 15:34N 54°29' E 011°35'1212.4
2015-Jul-31 14:33N 54°27' E 011°56'6713.1
2015-Jul-31 09:25N 54°59' E 013°39'1213.6
2015-Jul-31 08:34N 55°04' E 013°58'1413.6
2015-Jul-31 07:34N 55°13' E 014°15'1414.5
2015-Jul-31 06:34N 55°24' E 014°31'1414.4
2015-Jul-31 05:33N 55°33' E 014°52'1414.4
2015-Jul-31 04:34N 55°40' E 015°14'35314.1
2015-Jul-30 03:31N 59°38' E 023°21'1414.6
2015-Jul-30 02:31N 59°42' E 023°48'7314.3
2015-Jul-29 21:26N 60°03' E 026°07'1213.8
2015-Jul-29 20:33N 60°12' E 026°22'1312.8
2015-Jul-29 19:33N 60°21' E 026°40'8 7.8
2015-Jul-29 18:33N 60°25' E 026°55'0 0.0
2015-Jul-29 17:32N 60°25' E 026°55'0 0.0
2015-Jul-29 16:32N 60°25' E 026°55'0 0.0
2015-Jul-29 15:31N 60°25' E 026°55'0 0.0
2015-Jul-29 14:31N 60°25' E 026°55'0 0.0
2015-Jul-29 13:31N 60°25' E 026°55'0 0.0
2015-Jul-29 12:33N 60°25' E 026°55'0 0.0
2015-Jul-29 11:30N 60°25' E 026°55'0 0.0
2015-Jul-29 10:32N 60°25' E 026°55'0 0.0
2015-Jul-29 09:32N 60°25' E 026°55'0 0.0
2015-Jul-29 08:31N 60°25' E 026°55'0 0.0
2015-Jul-29 07:31N 60°25' E 026°55'0 0.0
2015-Jul-29 06:31N 60°25' E 026°55'0 0.0
2015-Jul-29 05:33N 60°25' E 026°55'0 0.0
2015-Jul-29 04:33N 60°25' E 026°55'0 0.0
2015-Jul-29 03:32N 60°25' E 026°55'0 0.0
2015-Jul-29 02:32N 60°25' E 026°55'0 0.0
2015-Jul-29 01:31N 60°25' E 026°55'0 0.0
2015-Jul-29 00:31N 60°25' E 026°55'0 0.0
2015-Jul-28 23:34N 60°25' E 026°55'0 0.0
2015-Jul-28 22:33N 60°25' E 026°55'0 0.0
2015-Jul-28 21:33N 60°25' E 026°55'0 0.0
2015-Jul-28 20:32N 60°25' E 026°55'0 0.0
2015-Jul-28 19:32N 60°25' E 026°55'0 0.0
2015-Jul-28 18:31N 60°25' E 026°55'0 0.0
2015-Jul-28 17:31N 60°25' E 026°55'0 0.0
2015-Jul-28 16:34N 60°25' E 026°55'0 0.0
2015-Jul-28 15:33N 60°25' E 026°55'0 0.0
2015-Jul-28 14:33N 60°25' E 026°55'0 0.0
2015-Jul-28 13:32N 60°25' E 026°55'0 0.0
2015-Jul-28 12:32N 60°25' E 026°55'0 0.0
2015-Jul-28 11:31N 60°25' E 026°55'0 0.1
2015-Jul-28 10:31N 60°25' E 026°55'0 0.1
2015-Jul-28 09:34N 60°25' E 026°55'0 0.0
2015-Jul-28 08:33N 60°25' E 026°55'0 0.1
2015-Jul-28 07:33N 60°25' E 026°55'0 0.1
2015-Jul-28 06:32N 60°25' E 026°55'0 0.0
2015-Jul-28 05:32N 60°25' E 026°55'0 0.0
2015-Jul-28 04:31N 60°25' E 026°55'0 0.0
2015-Jul-28 03:31N 60°25' E 026°55'0 0.0
2015-Jul-28 02:33N 60°25' E 026°55'0 0.0
2015-Jul-28 01:33N 60°25' E 026°55'0 0.0
2015-Jul-28 00:33N 60°25' E 026°55'0 0.0
2015-Jul-27 23:32N 60°25' E 026°55'0 0.0
2015-Jul-27 22:29N 60°25' E 026°55'0 0.0
2015-Jul-27 21:31N 60°25' E 026°55'0 0.0
2015-Jul-27 20:31N 60°25' E 026°55'0 0.0
2015-Jul-27 19:33N 60°25' E 026°55'0 0.0
2015-Jul-27 18:33N 60°25' E 026°55'0 0.0
2015-Jul-27 17:33N 60°25' E 026°55'0 0.0
2015-Jul-27 16:32N 60°25' E 026°55'0 0.0
2015-Jul-27 15:32N 60°25' E 026°55'0 0.0
2015-Jul-27 14:31N 60°25' E 026°55'0 0.0
2015-Jul-27 13:31N 60°25' E 026°55'0 0.0
2015-Jul-27 12:33N 60°25' E 026°55'0 0.0
2015-Jul-27 11:33N 60°25' E 026°55'0 0.0
2015-Jul-27 10:33N 60°25' E 026°55'0 0.0
2015-Jul-27 09:33N 60°25' E 026°55'5 5.0
2015-Jul-27 08:33N 60°23' E 026°46'1313.4
2015-Jul-27 07:33N 60°14' E 026°25'4 3.1
2015-Jul-27 06:17N 60°11' E 026°20'0 0.0
2015-Jul-27 05:28N 60°11' E 026°20'0 0.0
2015-Jul-27 04:31N 60°11' E 026°20'0 0.0
2015-Jul-27 03:31N 60°11' E 026°20'0 0.0
2015-Jul-27 02:33N 60°11' E 026°20'0 0.0
2015-Jul-27 01:33N 60°11' E 026°20'0 0.0
2015-Jul-27 00:32N 60°11' E 026°20'0 0.0
2015-Jul-26 23:29N 60°11' E 026°20'0 0.0
2015-Jul-26 22:31N 60°11' E 026°20'0 0.0
2015-Jul-26 21:31N 60°11' E 026°20'0 0.0
2015-Jul-26 20:31N 60°11' E 026°20'0 0.0
2015-Jul-26 19:33N 60°11' E 026°20'0 0.0
2015-Jul-26 17:32N 60°11' E 026°20'0 0.0
2015-Jul-26 16:14N 60°11' E 026°20'0 0.2
2015-Jul-26 15:32N 60°11' E 026°20'50 8.4
2015-Jul-26 09:33N 59°46' E 024°53'44 8.8
2015-Jul-26 04:33N 59°34' E 023°29'196 8.5
2015-Jul-25 05:30N 57°15' E 019°07'84 9.2
2015-Jul-24 20:22N 56°17' E 017°17'  
Track history (hours):
 
Tides and Currents Weather Stations Pressure Air Temp Water Temp Dewpoint Dewpoint Depression Visibility Wind Speed Wind Dir Waves Ship Positions

Anne Sibum

Last reported at 2015-Aug-03 16:33 UTC. Time now 2015-Aug-03 17:11 UTC.
Position N 53°59' E 008°28'.

Length 151 m; draft 5.9 m.

Type: Cargo ship. MMSI: 209322000.

Date/timePositionNaut miles runAvg speedWind from/ knotsBaromVisibWave heightAir tempDewpointWater temp
2015-Aug-03 16:33N 53°59' E 008°28'1212.0
2015-Aug-03 15:33N 53°59' E 008°07'1111.2
2015-Aug-03 14:33N 53°51' E 007°53'1313.3
2015-Aug-03 13:33N 53°40' E 008°06'5 5.0
2015-Aug-03 12:31N 53°35' E 008°09'0 0.0
2015-Aug-03 11:30N 53°35' E 008°09'0 0.0
2015-Aug-03 10:31N 53°35' E 008°09'0 0.0
2015-Aug-03 09:32N 53°35' E 008°09'0 0.0
2015-Aug-03 08:32N 53°35' E 008°09'0 0.0
2015-Aug-03 07:32N 53°35' E 008°09'0 0.0
2015-Aug-03 06:31N 53°35' E 008°09'0 0.0
2015-Aug-03 05:31N 53°35' E 008°09'0 0.0
2015-Aug-03 04:33N 53°35' E 008°09'0 0.0
2015-Aug-03 03:30N 53°35' E 008°09'0 0.0
2015-Aug-03 02:20N 53°35' E 008°09'0 0.0
2015-Aug-03 01:32N 53°35' E 008°09'0 0.0
2015-Aug-03 00:32N 53°35' E 008°09'0 0.0
2015-Aug-02 23:31N 53°35' E 008°09'0 0.0
2015-Aug-02 22:31N 53°35' E 008°09'0 0.0
2015-Aug-02 21:33N 53°35' E 008°09'0 0.0
2015-Aug-02 20:30N 53°35' E 008°09'0 0.0
2015-Aug-02 19:32N 53°35' E 008°09'0 0.0
2015-Aug-02 18:32N 53°35' E 008°09'0 0.0
2015-Aug-02 17:31N 53°35' E 008°09'0 0.0
2015-Aug-02 16:33N 53°35' E 008°09'0 0.0
2015-Aug-02 15:31N 53°35' E 008°09'0 0.0
2015-Aug-02 14:33N 53°35' E 008°09'0 0.0
2015-Aug-02 13:33N 53°35' E 008°09'0 0.0
2015-Aug-02 12:26N 53°35' E 008°09'0 0.0
2015-Aug-02 11:29N 53°35' E 008°09'0 0.0
2015-Aug-02 10:31N 53°35' E 008°09'0 0.0
2015-Aug-02 09:31N 53°35' E 008°09'0 0.0
2015-Aug-02 08:31N 53°35' E 008°09'0 0.0
2015-Aug-02 07:33N 53°35' E 008°09'0 0.0
2015-Aug-02 06:33N 53°35' E 008°09'0 0.0
2015-Aug-02 05:32N 53°35' E 008°09'0 0.0
2015-Aug-02 04:32N 53°35' E 008°09'0 0.0
2015-Aug-02 03:31N 53°35' E 008°09'0 0.0
2015-Aug-02 02:28N 53°35' E 008°09'0 0.0
2015-Aug-02 01:31N 53°35' E 008°09'0 0.0
2015-Aug-02 00:33N 53°35' E 008°09'0 0.0
2015-Aug-01 23:33N 53°35' E 008°09'0 0.0
2015-Aug-01 22:32N 53°35' E 008°09'0 0.0
2015-Aug-01 21:33N 53°35' E 008°09'0 0.0
2015-Aug-01 20:33N 53°35' E 008°09'6 5.6
2015-Aug-01 19:33N 53°40' E 008°05'1313.3
2015-Aug-01 18:33N 53°51' E 007°53'3 3.1
2015-Aug-01 17:33N 53°54' E 007°49'0 0.1
2015-Aug-01 16:32N 53°54' E 007°49'0 0.0
2015-Aug-01 15:29N 53°54' E 007°49'0 0.0
2015-Aug-01 14:28N 53°54' E 007°49'0 0.0
2015-Aug-01 13:16N 53°54' E 007°49'0 0.0
2015-Aug-01 12:31N 53°54' E 007°49'2 1.9
2015-Aug-01 11:33N 53°55' E 007°52'1212.3
2015-Aug-01 10:34N 54°00' E 008°10'1211.7
2015-Aug-01 09:33N 53°59' E 008°30'1111.0
2015-Aug-01 08:33N 53°52' E 008°45'1413.9
2015-Aug-01 07:33N 53°53' E 009°08'1 1.0
2015-Aug-01 06:33N 53°54' E 009°09'3 3.5
2015-Aug-01 05:33N 53°57' E 009°13'16 7.8
2015-Aug-01 03:33N 54°10' E 009°26'7 7.3
2015-Aug-01 02:33N 54°14' E 009°37'6 6.2
2015-Aug-01 01:33N 54°19' E 009°43'5 5.3
2015-Aug-01 00:33N 54°22' E 009°51'7 7.5
2015-Jul-31 23:33N 54°22' E 010°04'3 3.0
2015-Jul-31 22:33N 54°22' E 010°09'1 1.0
2015-Jul-31 21:33N 54°22' E 010°10'7 7.2
2015-Jul-31 20:33N 54°29' E 010°16'8 7.9
2015-Jul-31 19:33N 54°32' E 010°27'5 4.8
2015-Jul-31 18:33N 54°34' E 010°35'1010.1
2015-Jul-31 17:34N 54°35' E 010°52'1312.9
2015-Jul-31 16:33N 54°35' E 011°14'1313.4
2015-Jul-31 15:34N 54°29' E 011°35'1212.4
2015-Jul-31 14:33N 54°27' E 011°56'6713.1
2015-Jul-31 09:25N 54°59' E 013°39'1213.6
2015-Jul-31 08:34N 55°04' E 013°58'1413.6
2015-Jul-31 07:34N 55°13' E 014°15'1414.5
2015-Jul-31 06:34N 55°24' E 014°31'1414.4
2015-Jul-31 05:33N 55°33' E 014°52'1414.4
2015-Jul-31 04:34N 55°40' E 015°14'35314.1
2015-Jul-30 03:31N 59°38' E 023°21'1414.6
2015-Jul-30 02:31N 59°42' E 023°48'7314.3
2015-Jul-29 21:26N 60°03' E 026°07'1213.8
2015-Jul-29 20:33N 60°12' E 026°22'1312.8
2015-Jul-29 19:33N 60°21' E 026°40'8 7.8
2015-Jul-29 18:33N 60°25' E 026°55'0 0.0
2015-Jul-29 17:32N 60°25' E 026°55'0 0.0
2015-Jul-29 16:32N 60°25' E 026°55'0 0.0
2015-Jul-29 15:31N 60°25' E 026°55'0 0.0
2015-Jul-29 14:31N 60°25' E 026°55'0 0.0
2015-Jul-29 13:31N 60°25' E 026°55'0 0.0
2015-Jul-29 12:33N 60°25' E 026°55'0 0.0
2015-Jul-29 11:30N 60°25' E 026°55'0 0.0
2015-Jul-29 10:32N 60°25' E 026°55'0 0.0
2015-Jul-29 09:32N 60°25' E 026°55'0 0.0
2015-Jul-29 08:31N 60°25' E 026°55'0 0.0
2015-Jul-29 07:31N 60°25' E 026°55'0 0.0
2015-Jul-29 06:31N 60°25' E 026°55'0 0.0
2015-Jul-29 05:33N 60°25' E 026°55'0 0.0
2015-Jul-29 04:33N 60°25' E 026°55'0 0.0
2015-Jul-29 03:32N 60°25' E 026°55'0 0.0
2015-Jul-29 02:32N 60°25' E 026°55'0 0.0
2015-Jul-29 01:31N 60°25' E 026°55'0 0.0
2015-Jul-29 00:31N 60°25' E 026°55'0 0.0
2015-Jul-28 23:34N 60°25' E 026°55'0 0.0
2015-Jul-28 22:33N 60°25' E 026°55'0 0.0
2015-Jul-28 21:33N 60°25' E 026°55'0 0.0
2015-Jul-28 20:32N 60°25' E 026°55'0 0.0
2015-Jul-28 19:32N 60°25' E 026°55'0 0.0
2015-Jul-28 18:31N 60°25' E 026°55'0 0.0
2015-Jul-28 17:31N 60°25' E 026°55'0 0.0
2015-Jul-28 16:34N 60°25' E 026°55'0 0.0
2015-Jul-28 15:33N 60°25' E 026°55'0 0.0
2015-Jul-28 14:33N 60°25' E 026°55'0 0.0
2015-Jul-28 13:32N 60°25' E 026°55'0 0.0
2015-Jul-28 12:32N 60°25' E 026°55'0 0.0
2015-Jul-28 11:31N 60°25' E 026°55'0 0.1
2015-Jul-28 10:31N 60°25' E 026°55'0 0.1
2015-Jul-28 09:34N 60°25' E 026°55'0 0.0
2015-Jul-28 08:33N 60°25' E 026°55'0 0.1
2015-Jul-28 07:33N 60°25' E 026°55'0 0.1
2015-Jul-28 06:32N 60°25' E 026°55'0 0.0
2015-Jul-28 05:32N 60°25' E 026°55'0 0.0
2015-Jul-28 04:31N 60°25' E 026°55'0 0.0
2015-Jul-28 03:31N 60°25' E 026°55'0 0.0
2015-Jul-28 02:33N 60°25' E 026°55'0 0.0
2015-Jul-28 01:33N 60°25' E 026°55'0 0.0
2015-Jul-28 00:33N 60°25' E 026°55'0 0.0
2015-Jul-27 23:32N 60°25' E 026°55'0 0.0
2015-Jul-27 22:29N 60°25' E 026°55'0 0.0
2015-Jul-27 21:31N 60°25' E 026°55'0 0.0
2015-Jul-27 20:31N 60°25' E 026°55'0 0.0
2015-Jul-27 19:33N 60°25' E 026°55'0 0.0
2015-Jul-27 18:33N 60°25' E 026°55'0 0.0
2015-Jul-27 17:33N 60°25' E 026°55'0 0.0
2015-Jul-27 16:32N 60°25' E 026°55'0 0.0
2015-Jul-27 15:32N 60°25' E 026°55'0 0.0
2015-Jul-27 14:31N 60°25' E 026°55'0 0.0
2015-Jul-27 13:31N 60°25' E 026°55'0 0.0
2015-Jul-27 12:33N 60°25' E 026°55'0 0.0
2015-Jul-27 11:33N 60°25' E 026°55'0 0.0
2015-Jul-27 10:33N 60°25' E 026°55'0 0.0
2015-Jul-27 09:33N 60°25' E 026°55'5 5.0
2015-Jul-27 08:33N 60°23' E 026°46'1313.4
2015-Jul-27 07:33N 60°14' E 026°25'4 3.1
2015-Jul-27 06:17N 60°11' E 026°20'0 0.0
2015-Jul-27 05:28N 60°11' E 026°20'0 0.0
2015-Jul-27 04:31N 60°11' E 026°20'0 0.0
2015-Jul-27 03:31N 60°11' E 026°20'0 0.0
2015-Jul-27 02:33N 60°11' E 026°20'0 0.0
2015-Jul-27 01:33N 60°11' E 026°20'0 0.0
2015-Jul-27 00:32N 60°11' E 026°20'0 0.0
2015-Jul-26 23:29N 60°11' E 026°20'0 0.0
2015-Jul-26 22:31N 60°11' E 026°20'0 0.0
2015-Jul-26 21:31N 60°11' E 026°20'0 0.0
2015-Jul-26 20:31N 60°11' E 026°20'0 0.0
2015-Jul-26 19:33N 60°11' E 026°20'0 0.0
2015-Jul-26 17:32N 60°11' E 026°20'0 0.0
2015-Jul-26 16:14N 60°11' E 026°20'0 0.2
2015-Jul-26 15:32N 60°11' E 026°20'50 8.4
2015-Jul-26 09:33N 59°46' E 024°53'44 8.8
2015-Jul-26 04:33N 59°34' E 023°29'196 8.5
2015-Jul-25 05:30N 57°15' E 019°07'84 9.2
2015-Jul-24 20:22N 56°17' E 017°17'  

Dump ship's entire track history